Time;durP1;ratioP1;P1;durP2;ratioP2;P2;SDS_P1;SDS_P2;PMS_P1;PMS_P2;Temp;Humidity;BMP_temperature;BMP_pressure;BME280_temperature;BME280_humidity;BME280_pressure;Samples;Min_cycle;Max_cycle;Signal;HPM_P1;HPM_P2
2024/04/12 00:01:12;;;;;;;8.53;3.93;;;;;;;8.38;96.70;99732.00;5448243;26;20645;-76
2024/04/12 00:03:41;;;;;;;4.37;3.40;;;;;;;8.26;97.20;99727.97;5445857;26;20459;-76
2024/04/12 00:06:15;;;;;;;6.53;4.07;;;;;;;8.22;97.25;99730.78;5446736;25;20270;-77
2024/04/12 00:08:46;;;;;;;5.47;3.63;;;;;;;8.21;98.17;99734.34;5447351;26;20220;-76
2024/04/12 00:11:16;;;;;;;5.73;3.30;;;;;;;8.29;98.28;99733.16;5446298;26;20233;-76
2024/04/12 00:13:44;;;;;;;6.27;3.57;;;;;;;8.29;97.85;99735.78;5447927;26;20273;-76
2024/04/12 00:16:10;;;;;;;5.33;3.40;;;;;;;8.27;97.42;99720.97;5448119;26;20220;-76
2024/04/12 00:18:38;;;;;;;4.33;3.27;;;;;;;8.23;97.21;99722.84;5447372;26;20227;-76
2024/04/12 00:21:05;;;;;;;4.10;3.00;;;;;;;8.25;96.62;99710.47;5445514;26;20743;-77
2024/04/12 00:23:34;;;;;;;4.33;3.17;;;;;;;8.19;96.83;99715.94;5445085;26;20319;-77
2024/04/12 00:26:00;;;;;;;5.90;3.23;;;;;;;8.18;97.29;99713.31;5446285;26;20323;-76
2024/04/12 00:28:32;;;;;;;4.60;2.80;;;;;;;8.15;97.84;99719.56;5446540;26;20264;-77
2024/04/12 00:30:59;;;;;;;3.57;2.77;;;;;;;8.12;98.23;99716.16;5446515;26;20236;-77
2024/04/12 00:33:31;;;;;;;5.23;3.33;;;;;;;8.03;98.65;99714.72;5447174;26;20251;-77
2024/04/12 00:36:06;;;;;;;6.67;3.40;;;;;;;8.03;98.76;99714.72;5443486;26;20225;-76
2024/04/12 00:38:35;;;;;;;3.37;2.83;;;;;;;7.94;99.50;99714.16;5439147;26;20224;-76
2024/04/12 00:41:11;;;;;;;4.57;3.07;;;;;;;7.92;99.95;99716.00;5439925;26;20240;-76
2024/04/12 00:43:45;;;;;;;5.33;3.37;;;;;;;7.83;100.00;99714.53;5442137;26;20232;-77
2024/04/12 00:46:14;;;;;;;5.70;3.37;;;;;;;7.80;100.00;99706.75;5442596;26;20259;-76
2024/04/12 00:48:42;;;;;;;5.57;3.13;;;;;;;7.80;100.00;99711.13;5442637;26;20225;-76
2024/04/12 00:51:09;;;;;;;6.23;3.53;;;;;;;7.71;100.00;99714.09;5442228;26;20248;-76
2024/04/12 00:53:38;;;;;;;4.27;3.63;;;;;;;7.74;100.00;99706.06;5442503;26;20228;-77
2024/04/12 00:56:09;;;;;;;3.50;3.10;;;;;;;7.69;100.00;99708.88;5442235;26;20228;-76
2024/04/12 00:58:37;;;;;;;5.27;3.50;;;;;;;7.69;100.00;99708.00;5442030;26;20220;-76
2024/04/12 01:01:11;;;;;;;5.53;3.83;;;;;;;7.65;100.00;99711.66;5441492;26;20619;-76
2024/04/12 01:03:45;;;;;;;7.87;4.00;;;;;;;7.73;100.00;99710.47;5442137;26;20259;-76
2024/04/12 01:06:18;;;;;;;5.97;4.27;;;;;;;7.68;100.00;99711.53;5442159;26;20254;-76
2024/04/12 01:08:51;;;;;;;4.70;3.37;;;;;;;7.59;100.00;99711.84;5442289;26;20332;-77
2024/04/12 01:11:19;;;;;;;5.93;3.97;;;;;;;7.55;100.00;99726.00;5441776;26;20233;-76
2024/04/12 01:13:48;;;;;;;3.70;3.20;;;;;;;7.51;100.00;99729.63;5442120;26;20221;-77
2024/04/12 01:16:17;;;;;;;6.00;4.20;;;;;;;7.56;100.00;99725.09;5442048;26;20220;-77
2024/04/12 01:18:46;;;;;;;5.63;4.23;;;;;;;7.48;100.00;99730.59;5441955;26;20331;-77
2024/04/12 01:21:11;;;;;;;4.83;4.00;;;;;;;7.50;100.00;99728.78;5441801;26;20244;-77
2024/04/12 01:23:48;;;;;;;5.23;3.83;;;;;;;7.57;100.00;99719.78;5441794;26;20225;-76
2024/04/12 01:26:17;;;;;;;5.63;3.90;;;;;;;7.55;100.00;99726.00;5440184;26;20569;-78
2024/04/12 01:28:48;;;;;;;4.80;3.63;;;;;;;7.51;100.00;99719.09;5441858;26;20221;-78
2024/04/12 01:31:14;;;;;;;6.60;4.37;;;;;;;7.52;100.00;99720.81;5441751;26;20324;-77
2024/04/12 01:33:48;;;;;;;5.53;3.80;;;;;;;7.48;100.00;99729.75;5442458;26;20221;-76
2024/04/12 01:36:17;;;;;;;6.87;3.90;;;;;;;7.40;100.00;99718.59;5445531;26;20224;-76
2024/04/12 01:38:53;;;;;;;6.27;3.90;;;;;;;7.36;100.00;99722.25;5452659;26;20320;-75
2024/04/12 01:41:22;;;;;;;5.47;3.53;;;;;;;7.40;100.00;99726.47;5453466;26;20232;-76
2024/04/12 01:43:52;;;;;;;6.40;3.70;;;;;;;7.34;100.00;99729.31;5446329;26;20684;-76
2024/04/12 01:46:21;;;;;;;4.80;3.50;;;;;;;7.32;100.00;99724.09;5441890;26;20220;-76
2024/04/12 01:48:50;;;;;;;8.37;4.00;;;;;;;7.40;100.00;99737.88;5441515;26;20299;-76
2024/04/12 01:51:16;;;;;;;6.63;4.13;;;;;;;7.31;100.00;99729.41;5441120;26;20232;-76
2024/04/12 01:53:45;;;;;;;6.37;3.73;;;;;;;7.36;100.00;99727.50;5441059;25;20263;-76
2024/04/12 01:56:13;;;;;;;6.23;3.70;;;;;;;7.32;100.00;99728.50;5441667;26;20255;-76
2024/04/12 01:58:44;;;;;;;4.70;3.83;;;;;;;7.26;100.00;99727.84;5441223;26;20324;-77
2024/04/12 02:01:11;;;;;;;5.10;4.07;;;;;;;7.20;100.00;99734.13;5440828;26;20727;-76
2024/04/12 02:03:40;;;;;;;6.93;4.40;;;;;;;7.16;100.00;99732.53;5441207;26;20733;-76
2024/04/12 02:06:05;;;;;;;6.80;4.80;;;;;;;7.12;100.00;99735.25;5441381;26;20217;-76
2024/04/12 02:08:38;;;;;;;6.63;4.60;;;;;;;7.08;100.00;99728.41;5441309;26;20797;-77
2024/04/12 02:11:05;;;;;;;6.40;4.27;;;;;;;6.99;100.00;99734.78;5441241;26;20233;-77
2024/04/12 02:13:41;;;;;;;7.37;3.77;;;;;;;6.93;100.00;99737.59;5441170;26;20239;-77
2024/04/12 02:16:10;;;;;;;8.23;4.33;;;;;;;6.86;100.00;99733.44;5440933;26;20685;-76
2024/04/12 02:18:44;;;;;;;6.43;4.07;;;;;;;6.81;100.00;99735.31;5440942;26;20236;-76
2024/04/12 02:21:10;;;;;;;9.00;4.60;;;;;;;6.80;100.00;99733.59;5440524;26;20236;-76
2024/04/12 02:23:40;;;;;;;6.13;4.03;;;;;;;6.96;100.00;99732.22;5441024;26;21018;-76
2024/04/12 02:26:08;;;;;;;8.33;3.77;;;;;;;7.04;100.00;99717.13;5441111;26;20293;-76
2024/04/12 02:28:37;;;;;;;7.13;3.97;;;;;;;6.91;100.00;99731.50;5440561;26;20255;-77
2024/04/12 02:31:08;;;;;;;6.40;3.83;;;;;;;6.87;100.00;99735.16;5440254;26;20232;-77
2024/04/12 02:33:42;;;;;;;4.63;3.83;;;;;;;6.80;100.00;99728.34;5440625;26;20224;-76
2024/04/12 02:36:11;;;;;;;6.17;4.10;;;;;;;6.76;100.00;99737.22;5440730;26;20703;-77
2024/04/12 02:38:41;;;;;;;5.97;4.80;;;;;;;6.80;100.00;99725.72;5440682;26;20221;-76
2024/04/12 02:41:06;;;;;;;5.80;3.63;;;;;;;6.75;100.00;99732.88;5440243;26;20236;-76
2024/04/12 02:43:35;;;;;;;5.57;3.97;;;;;;;6.72;100.00;99735.56;5440260;26;20328;-76
2024/04/12 02:46:01;;;;;;;7.83;3.97;;;;;;;6.70;100.00;99732.13;5440727;26;20220;-76
2024/04/12 02:48:31;;;;;;;6.07;4.03;;;;;;;6.69;100.00;99730.41;5440581;26;20753;-76
2024/04/12 02:51:03;;;;;;;7.27;4.07;;;;;;;6.69;100.00;99727.78;5440359;26;20236;-76
2024/04/12 02:53:35;;;;;;;4.77;3.90;;;;;;;6.73;100.00;99737.28;5440785;26;20595;-76
2024/04/12 02:56:02;;;;;;;7.07;4.23;;;;;;;6.70;100.00;99733.88;5439213;26;20263;-76
2024/04/12 02:58:37;;;;;;;6.60;3.90;;;;;;;6.62;100.00;99741.13;5440422;26;20267;-76
2024/04/12 03:01:03;;;;;;;4.30;3.90;;;;;;;6.58;100.00;99737.72;5439962;26;20282;-76
2024/04/12 03:03:32;;;;;;;6.73;4.53;;;;;;;6.56;100.00;99736.91;5439650;26;20383;-76
2024/04/12 03:06:00;;;;;;;6.57;4.67;;;;;;;6.53;100.00;99737.00;5439623;26;20279;-76
2024/04/12 03:08:32;;;;;;;8.97;5.07;;;;;;;6.50;100.00;99742.34;5440202;26;20600;-76
2024/04/12 03:11:12;;;;;;;5.43;4.33;;;;;;;6.48;100.00;99740.66;5439822;26;20236;-76
2024/04/12 03:13:40;;;;;;;7.43;4.87;;;;;;;6.46;100.00;99738.06;5440057;26;20327;-76
2024/04/12 03:16:13;;;;;;;8.03;4.93;;;;;;;6.43;100.00;99738.16;5439932;26;20337;-76
2024/04/12 03:18:44;;;;;;;8.27;5.37;;;;;;;6.41;100.00;99733.84;5440295;26;20556;-76
2024/04/12 03:21:13;;;;;;;8.20;5.00;;;;;;;6.36;100.00;99736.59;5439984;26;20307;-78
2024/04/12 03:23:46;;;;;;;6.20;4.87;;;;;;;6.37;100.00;99743.59;5439761;26;20251;-77
2024/04/12 03:26:12;;;;;;;6.97;5.07;;;;;;;6.33;100.00;99741.94;5439837;26;20292;-77
2024/04/12 03:28:40;;;;;;;6.70;4.53;;;;;;;6.29;100.00;99745.53;5440092;26;20331;-77
2024/04/12 03:31:07;;;;;;;7.53;4.63;;;;;;;6.25;100.00;99737.78;5439561;26;20621;-76
2024/04/12 03:33:42;;;;;;;8.07;5.23;;;;;;;6.25;100.00;99743.03;5439565;26;20250;-76
2024/04/12 03:36:26;;;;;;;7.97;4.90;;;;;;;6.24;100.00;99743.94;5439961;26;20220;-77
2024/04/12 03:39:24;;;;;;;10.40;5.20;;;;;;;6.21;100.00;99746.63;5439869;26;20267;-76
2024/04/12 03:41:43;;;;;;;7.67;4.53;;;;;;;6.21;100.00;99747.50;5439146;26;20212;-76
2024/04/12 03:44:13;;;;;;;7.07;4.93;;;;;;;6.17;100.00;99747.63;5439375;26;20274;-76
2024/04/12 03:46:40;;;;;;;8.63;5.63;;;;;;;6.18;100.00;99749.34;5439889;26;20848;-78
2024/04/12 03:49:13;;;;;;;7.23;5.20;;;;;;;6.16;100.00;99745.91;5440283;26;20232;-78
2024/04/12 03:51:46;;;;;;;6.80;4.83;;;;;;;6.16;100.00;99748.53;5452875;26;20220;-78
2024/04/12 03:54:17;;;;;;;8.47;5.23;;;;;;;6.12;100.00;99746.88;5451015;26;20225;-76
2024/04/12 03:56:44;;;;;;;7.70;5.50;;;;;;;6.13;100.00;99754.72;5444882;26;20254;-78
2024/04/12 03:59:12;;;;;;;9.27;5.57;;;;;;;6.13;100.00;99762.59;5439299;26;20270;-76
2024/04/12 04:01:44;;;;;;;10.03;5.40;;;;;;;6.10;100.00;99749.53;5439064;26;20671;-76
2024/04/12 04:04:17;;;;;;;7.37;5.60;;;;;;;6.04;100.00;99754.94;5439680;26;20326;-76
2024/04/12 04:06:54;;;;;;;9.80;5.63;;;;;;;6.05;100.00;99759.28;5439579;26;20224;-76
2024/04/12 04:09:20;;;;;;;12.47;5.03;;;;;;;6.05;100.00;99753.19;5439207;26;20326;-78
2024/04/12 04:11:52;;;;;;;7.70;5.43;;;;;;;6.04;100.00;99754.09;5438908;26;20233;-76
2024/04/12 04:14:19;;;;;;;7.50;5.50;;;;;;;6.01;100.00;99757.66;5439078;26;20220;-76
2024/04/12 04:16:49;;;;;;;7.63;5.43;;;;;;;6.02;100.00;99751.50;5441853;26;20753;-77
2024/04/12 04:19:17;;;;;;;8.63;6.07;;;;;;;6.01;100.00;99738.44;5442667;26;20379;-76
2024/04/12 04:21:48;;;;;;;9.73;5.70;;;;;;;6.00;100.00;99753.31;5442306;26;20228;-78
2024/04/12 04:24:14;;;;;;;7.93;5.60;;;;;;;5.98;100.00;99749.84;5442550;26;20664;-76
2024/04/12 04:26:43;;;;;;;8.93;5.67;;;;;;;5.99;100.00;99755.97;5441655;26;20263;-77
2024/04/12 04:29:09;;;;;;;9.33;5.83;;;;;;;5.97;100.00;99752.50;5441928;26;20329;-76
2024/04/12 04:31:49;;;;;;;8.37;5.83;;;;;;;5.98;100.00;99749.00;5442012;26;20228;-76
2024/04/12 04:34:17;;;;;;;8.33;5.53;;;;;;;5.98;100.00;99751.63;5442205;26;20228;-76
2024/04/12 04:36:49;;;;;;;8.53;6.00;;;;;;;5.99;100.00;99751.56;5442185;26;20224;-77
2024/04/12 04:39:15;;;;;;;9.77;6.13;;;;;;;6.01;100.00;99752.41;5442221;26;20220;-78
2024/04/12 04:41:46;;;;;;;10.70;6.23;;;;;;;6.02;100.00;99746.25;5441605;26;20263;-77
2024/04/12 04:44:14;;;;;;;9.60;6.00;;;;;;;6.04;100.00;99740.97;5442526;26;20280;-78
2024/04/12 04:46:44;;;;;;;9.27;6.70;;;;;;;6.04;100.00;99739.19;5442159;26;20229;-77
2024/04/12 04:49:10;;;;;;;10.23;6.00;;;;;;;6.02;100.00;99738.38;5441828;26;20228;-77
2024/04/12 04:51:39;;;;;;;9.17;5.90;;;;;;;6.01;100.00;99735.81;5441698;26;20267;-76
2024/04/12 04:54:11;;;;;;;9.13;6.17;;;;;;;5.99;100.00;99741.06;5442458;26;20225;-77
2024/04/12 04:56:40;;;;;;;7.60;5.57;;;;;;;5.99;100.00;99737.59;5442096;26;20289;-76
2024/04/12 04:59:07;;;;;;;9.80;5.50;;;;;;;5.99;100.00;99745.47;5442154;26;20354;-76
2024/04/12 05:01:36;;;;;;;9.53;5.10;;;;;;;6.06;100.00;99734.81;5441815;26;20258;-77
2024/04/12 05:04:02;;;;;;;5.87;4.00;;;;;;;6.03;100.00;99737.47;5441896;26;20217;-77
2024/04/12 05:06:30;;;;;;;4.63;3.60;;;;;;;6.04;100.00;99740.97;5442052;26;20767;-76
2024/04/12 05:09:00;;;;;;;4.83;3.83;;;;;;;5.99;100.00;99745.47;5441628;26;20349;-76
2024/04/12 05:11:31;;;;;;;4.93;3.50;;;;;;;5.98;100.00;99741.97;5441410;26;20233;-76
2024/04/12 05:13:57;;;;;;;5.07;3.43;;;;;;;6.03;100.00;99752.34;5441494;26;20707;-76
2024/04/12 05:16:25;;;;;;;6.97;3.87;;;;;;;6.03;100.00;99758.47;5441481;26;20260;-76
2024/04/12 05:18:53;;;;;;;4.47;4.03;;;;;;;6.04;100.00;99760.19;5442253;26;20274;-77
2024/04/12 05:21:23;;;;;;;4.10;3.70;;;;;;;6.11;100.00;99756.50;5441213;26;20232;-76
2024/04/12 05:23:51;;;;;;;6.27;4.47;;;;;;;6.18;100.00;99751.97;5441576;26;20714;-77
2024/04/12 05:26:17;;;;;;;9.90;5.10;;;;;;;6.24;100.00;99755.28;5441524;26;20251;-77
2024/04/12 05:28:48;;;;;;;6.47;5.17;;;;;;;6.36;100.00;99749.72;5440689;26;20279;-76
2024/04/12 05:31:14;;;;;;;7.00;5.37;;;;;;;6.46;100.00;99756.44;5441501;26;20308;-76
2024/04/12 05:33:43;;;;;;;7.07;5.47;;;;;;;6.56;100.00;99751.81;5441044;26;20235;-76
2024/04/12 05:36:09;;;;;;;8.47;5.90;;;;;;;6.64;100.00;99758.56;5441743;26;20231;-76
2024/04/12 05:38:38;;;;;;;8.23;5.97;;;;;;;6.79;100.00;99758.13;5441967;26;20325;-76
2024/04/12 05:41:04;;;;;;;7.90;5.73;;;;;;;6.91;100.00;99757.78;5440853;26;20358;-76
2024/04/12 05:43:33;;;;;;;8.33;5.67;;;;;;;7.07;100.00;99751.19;5441310;26;20228;-77
2024/04/12 05:46:01;;;;;;;11.60;6.17;;;;;;;7.21;100.00;99754.25;5441428;26;20236;-77
2024/04/12 05:48:30;;;;;;;8.63;6.07;;;;;;;7.36;100.00;99751.16;5441383;26;20741;-76
2024/04/12 05:50:56;;;;;;;10.83;6.47;;;;;;;7.50;100.00;99744.56;5443971;26;20237;-75
2024/04/12 05:53:29;;;;;;;8.97;6.00;;;;;;;7.69;100.00;99740.44;5452776;26;20594;-76
2024/04/12 05:58:40;;;;;;;7.00;5.13;;;;;;;8.01;100.00;99748.13;5442722;26;20236;-76
2024/04/12 06:01:08;;;;;;;7.63;5.53;;;;;;;8.08;100.00;99740.91;5441133;26;20287;-76
2024/04/12 06:03:42;;;;;;;9.30;6.20;;;;;;;8.12;100.00;99745.13;5441146;26;20723;-76
2024/04/12 06:06:08;;;;;;;11.77;6.67;;;;;;;8.24;100.00;99740.34;5441454;26;20267;-76
2024/04/12 06:08:37;;;;;;;8.97;5.33;;;;;;;8.31;100.00;99746.25;5441571;26;20224;-76
2024/04/12 06:11:08;;;;;;;8.17;5.70;;;;;;;8.42;100.00;99744.13;5440295;26;20579;-75
2024/04/12 06:13:35;;;;;;;6.97;5.20;;;;;;;8.53;100.00;99747.25;5441275;26;20320;-76
2024/04/12 06:16:03;;;;;;;8.53;5.90;;;;;;;8.64;100.00;99745.09;5440490;26;20301;-80
2024/04/12 06:18:32;;;;;;;8.43;5.80;;;;;;;8.74;100.00;99757.00;5442297;26;20220;-76
2024/04/12 06:21:01;;;;;;;8.83;5.80;;;;;;;8.81;100.00;99755.88;5440471;26;20232;-76
2024/04/12 06:23:26;;;;;;;9.27;5.57;;;;;;;8.91;100.00;99749.34;5440886;26;20949;-76
2024/04/12 06:25:58;;;;;;;7.97;5.77;;;;;;;8.95;100.00;99762.38;5440677;26;20224;-76
2024/04/12 06:28:24;;;;;;;7.03;5.50;;;;;;;9.05;100.00;99752.34;5440846;26;20715;-77
2024/04/12 06:30:56;;;;;;;9.00;5.83;;;;;;;9.15;100.00;99751.06;5440574;26;20236;-76
2024/04/12 06:33:22;;;;;;;7.20;5.57;;;;;;;9.20;100.00;99752.63;5440866;26;20710;-77
2024/04/12 06:36:03;;;;;;;7.53;5.23;;;;;;;9.26;100.00;99757.66;5440790;26;20228;-77
2024/04/12 06:38:29;;;;;;;9.07;6.00;;;;;;;9.42;100.00;99764.06;5440668;26;20255;-76
2024/04/12 06:41:00;;;;;;;8.30;5.13;;;;;;;9.45;100.00;99757.81;5439920;26;20240;-77
2024/04/12 06:43:26;;;;;;;6.80;5.37;;;;;;;9.55;100.00;99743.34;5440067;26;20563;-77
2024/04/12 06:46:02;;;;;;;6.67;5.30;;;;;;;9.66;100.00;99746.41;5440839;26;20229;-76
2024/04/12 06:48:32;;;;;;;10.33;6.43;;;;;;;9.78;100.00;99748.56;5440843;26;20742;-80
2024/04/12 06:51:05;;;;;;;5.70;5.10;;;;;;;9.85;100.00;99744.75;5408903;26;20241;-79
2024/04/12 06:53:31;;;;;;;7.80;5.60;;;;;;;9.97;100.00;99749.53;5406882;26;20234;-79
2024/04/12 06:56:05;;;;;;;7.97;5.73;;;;;;;10.10;100.00;99743.69;5407492;26;20230;-80
2024/04/12 06:58:31;;;;;;;8.63;5.63;;;;;;;10.25;100.00;99736.91;5407025;26;20289;-79
2024/04/12 07:01:00;;;;;;;7.17;5.60;;;;;;;10.36;100.00;99726.72;5405658;26;20347;-80
2024/04/12 07:03:27;;;;;;;8.37;5.80;;;;;;;10.42;99.13;99723.81;5407148;26;20619;-79
2024/04/12 07:06:01;;;;;;;7.17;5.23;;;;;;;10.50;98.30;99733.13;5406954;26;20229;-81
2024/04/12 07:08:29;;;;;;;8.50;5.37;;;;;;;10.64;97.95;99729.91;5408303;26;20268;-80
2024/04/12 07:10:59;;;;;;;8.93;5.60;;;;;;;10.82;96.71;99719.34;5406177;26;20743;-80
2024/04/12 07:13:27;;;;;;;8.50;5.07;;;;;;;10.90;96.55;99716.34;5413400;26;20400;-80
2024/04/12 07:16:01;;;;;;;8.90;5.20;;;;;;;11.13;94.73;99713.53;5440354;26;20243;-80
2024/04/12 07:18:28;;;;;;;7.20;5.40;;;;;;;11.20;91.78;99699.06;5443043;26;20224;-80
2024/04/12 07:21:15;;;;;;;8.53;5.10;;;;;;;11.27;90.34;99705.78;5441416;26;20643;-80
2024/04/12 07:23:46;;;;;;;7.90;4.60;;;;;;;11.36;89.62;99690.31;5442651;26;20236;-80
2024/04/12 07:26:14;;;;;;;8.77;5.50;;;;;;;11.52;88.55;99695.72;5442502;26;20293;-80
2024/04/12 07:28:40;;;;;;;7.50;4.87;;;;;;;11.65;88.36;99692.47;5443055;26;20228;-80
2024/04/12 07:31:09;;;;;;;8.73;4.93;;;;;;;11.82;87.03;99696.91;5442668;26;20355;-80
2024/04/12 07:33:35;;;;;;;6.17;4.70;;;;;;;11.99;85.31;99697.78;5407324;26;20244;-80
2024/04/12 07:36:10;;;;;;;8.10;4.90;;;;;;;12.15;84.61;99714.66;5406717;26;20232;-80
2024/04/12 07:38:36;;;;;;;9.03;4.50;;;;;;;12.28;82.64;99706.94;5406541;26;20237;-80
2024/04/12 07:41:10;;;;;;;7.27;4.33;;;;;;;12.50;78.09;99678.34;5406074;26;20344;-80
2024/04/12 07:43:41;;;;;;;7.50;4.70;;;;;;;12.60;78.49;99682.25;5413408;26;20579;-80
2024/04/12 07:46:14;;;;;;;4.93;3.90;;;;;;;12.66;78.77;99693.38;5442187;26;20354;-79
2024/04/12 07:48:40;;;;;;;6.03;3.83;;;;;;;12.80;74.93;99672.28;5442529;26;20228;-80
2024/04/12 07:51:10;;;;;;;6.40;4.33;;;;;;;12.81;75.88;99675.78;5443119;26;20284;-80
2024/04/12 07:53:35;;;;;;;7.07;4.40;;;;;;;12.96;76.27;99688.28;5455576;26;20248;-80
2024/04/12 07:56:14;;;;;;;5.63;3.73;;;;;;;13.25;76.79;99690.16;5462297;26;20309;-80
2024/04/12 07:58:42;;;;;;;5.03;4.30;;;;;;;13.44;74.34;99674.94;5461240;26;20224;-79
2024/04/12 08:01:18;;;;;;;5.30;3.60;;;;;;;13.63;71.86;99651.69;5450885;26;20408;-79
2024/04/12 08:03:50;;;;;;;5.87;3.63;;;;;;;13.70;71.98;99645.09;5445865;26;20239;-79
2024/04/12 08:06:36;;;;;;;11.67;3.90;;;;;;;13.84;73.87;99666.38;5444933;26;20224;-79
2024/04/12 08:09:03;;;;;;;6.47;3.70;;;;;;;14.04;71.47;99639.47;5424328;26;20271;-79
2024/04/12 08:11:35;;;;;;;4.40;3.77;;;;;;;14.01;68.44;99619.28;5408535;26;20535;-78
2024/04/12 08:14:05;;;;;;;5.70;3.60;;;;;;;14.02;68.64;99625.44;5407669;26;20233;-78
2024/04/12 08:16:38;;;;;;;4.43;4.00;;;;;;;14.14;69.47;99635.34;5408876;26;20225;-79
2024/04/12 08:19:11;;;;;;;7.17;4.03;;;;;;;14.26;68.26;99618.69;5439712;26;20224;-81
2024/04/12 08:21:41;;;;;;;6.53;4.00;;;;;;;14.40;66.88;99610.72;5441756;26;20358;-78
2024/04/12 08:24:09;;;;;;;5.83;4.03;;;;;;;14.52;67.94;99617.94;5427622;26;20278;-78
2024/04/12 08:26:45;;;;;;;5.93;3.97;;;;;;;14.64;66.28;99599.41;5439388;26;20239;-78
2024/04/12 08:29:20;;;;;;;6.63;3.77;;;;;;;14.67;66.17;99609.03;5438569;26;20702;-78
2024/04/12 08:31:48;;;;;;;5.77;4.07;;;;;;;14.79;65.32;99608.25;5439514;26;20241;-78
2024/04/12 08:34:15;;;;;;;6.07;3.93;;;;;;;14.85;65.28;99603.38;5439588;26;20777;-78
2024/04/12 08:36:43;;;;;;;7.13;4.27;;;;;;;15.07;66.75;99624.16;5440030;26;20568;-78
2024/04/12 08:39:12;;;;;;;5.27;3.70;;;;;;;15.08;66.23;99620.53;5439624;26;20339;-78
2024/04/12 08:41:44;;;;;;;4.67;3.70;;;;;;;15.19;65.60;99612.72;5415884;26;20291;-78
2024/04/12 08:44:11;;;;;;;7.03;4.03;;;;;;;15.34;62.57;99579.81;5403748;26;20739;-78
2024/04/12 08:46:43;;;;;;;6.57;4.17;;;;;;;15.42;62.25;99583.69;5403991;26;20229;-78
2024/04/12 08:49:14;;;;;;;4.83;3.57;;;;;;;15.74;64.57;99605.53;5403824;26;20229;-78
2024/04/12 08:51:46;;;;;;;5.13;3.67;;;;;;;15.71;63.29;99600.41;5393136;26;20311;-78
2024/04/12 08:54:15;;;;;;;5.17;3.90;;;;;;;15.80;61.77;99584.66;5385674;26;20225;-78
2024/04/12 08:56:47;;;;;;;7.50;3.90;;;;;;;15.79;60.33;99598.94;5389071;26;20221;-78
2024/04/12 08:59:17;;;;;;;5.50;4.17;;;;;;;15.91;61.66;99605.25;5379347;26;20272;-78
2024/04/12 09:01:48;;;;;;;5.53;3.80;;;;;;;16.02;58.46;99575.09;5383267;26;20226;-79
2024/04/12 09:04:16;;;;;;;8.03;3.73;;;;;;;16.06;58.12;99585.56;5380635;26;20831;-78
2024/04/12 09:06:48;;;;;;;6.93;4.00;;;;;;;16.25;60.40;99610.84;5378711;26;20229;-78
2024/04/12 09:09:17;;;;;;;5.83;3.83;;;;;;;16.35;61.67;99620.78;5409147;26;20221;-78
2024/04/12 09:11:48;;;;;;;5.67;3.83;;;;;;;16.42;58.61;99589.22;5441947;26;20283;-78
2024/04/12 09:14:20;;;;;;;5.40;4.10;;;;;;;16.44;57.32;99581.97;5442984;26;20312;-81
2024/04/12 09:16:49;;;;;;;6.67;4.00;;;;;;;16.55;59.76;99606.94;5445713;26;20784;-82
2024/04/12 09:19:15;;;;;;;6.87;4.43;;;;;;;16.63;58.89;99607.25;5446222;26;20233;-83
2024/04/12 09:21:58;;;;;;;5.90;4.27;;;;;;;16.72;56.09;99579.94;5445678;26;20220;-77
2024/04/12 09:24:31;;;;;;;6.97;4.67;;;;;;;16.92;56.48;99590.03;5441595;26;20224;-77
2024/04/12 09:27:09;;;;;;;5.97;4.23;;;;;;;16.95;56.51;99594.28;5441847;26;20228;-77
2024/04/12 09:29:43;;;;;;;7.23;4.57;;;;;;;17.01;58.64;99621.41;5441325;26;20279;-77
2024/04/12 09:34:58;;;;;;;6.97;4.60;;;;;;;17.30;57.55;99611.28;5444174;26;20319;-77
2024/04/12 09:37:38;;;;;;;8.27;4.80;;;;;;;17.39;56.86;99606.16;5442124;26;20236;-77
2024/04/12 09:40:24;;;;;;;8.00;3.97;;;;;;;17.41;55.69;99598.88;5440959;26;20251;-77
2024/04/12 09:46:05;;;;;;;7.53;4.53;;;;;;;17.53;54.26;99591.75;5367355;26;20389;-77
2024/04/12 10:38:44;;;;;;;8.97;5.70;;;;;;;19.29;52.58;99587.59;5444290;26;20303;-78
2024/04/12 10:41:12;;;;;;;9.27;5.67;;;;;;;19.28;52.42;99575.16;5440886;26;20270;-78
2024/04/12 10:43:42;;;;;;;7.73;5.83;;;;;;;19.39;53.51;99583.16;5441443;26;20382;-77
2024/04/12 10:46:11;;;;;;;9.50;6.23;;;;;;;19.51;50.99;99560.69;5441351;26;20229;-78
2024/04/12 10:48:42;;;;;;;11.23;6.23;;;;;;;19.58;49.43;99537.75;5441620;26;20224;-78
2024/04/12 10:51:14;;;;;;;10.47;7.07;;;;;;;19.73;49.04;99533.78;5440855;26;20267;-78
2024/04/12 10:53:40;;;;;;;9.77;6.13;;;;;;;19.82;48.72;99537.53;5440967;26;20217;-77
2024/04/12 10:56:11;;;;;;;7.90;5.97;;;;;;;19.86;49.10;99555.06;5441082;26;20802;-77
2024/04/12 10:58:43;;;;;;;9.00;6.37;;;;;;;19.95;47.74;99539.06;5441373;26;20220;-77
2024/04/12 11:01:11;;;;;;;10.90;6.60;;;;;;;19.85;48.15;99543.50;5440659;26;20252;-78
2024/04/12 11:03:40;;;;;;;10.13;6.70;;;;;;;19.79;47.28;99541.31;5440810;26;20295;-78
2024/04/12 11:06:17;;;;;;;11.07;5.97;;;;;;;19.67;48.00;99549.53;5440852;26;20274;-78
2024/04/12 11:08:44;;;;;;;9.17;6.00;;;;;;;19.73;48.71;99554.38;5441043;26;20785;-78
2024/04/12 11:11:19;;;;;;;9.07;5.90;;;;;;;19.61;47.59;99540.19;5440193;26;20286;-77
2024/04/12 11:13:47;;;;;;;8.77;6.00;;;;;;;19.69;46.49;99523.44;5440778;26;20275;-77
2024/04/12 11:32:43;;;;;;;8.47;5.17;;;;;;;19.84;50.86;99586.53;5442059;26;20263;-78
2024/04/12 11:35:15;;;;;;;7.77;5.33;;;;;;;19.88;48.49;99559.31;5439909;26;20263;-77
2024/04/12 11:37:41;;;;;;;7.53;5.20;;;;;;;19.91;50.72;99585.91;5439982;26;20532;-77
2024/04/12 11:40:16;;;;;;;9.70;5.57;;;;;;;20.09;45.59;99537.88;5439097;26;20270;-77
2024/04/12 11:42:45;;;;;;;8.30;6.07;;;;;;;19.95;44.61;99532.81;5439573;26;20224;-77
2024/04/12 11:45:14;;;;;;;8.47;6.10;;;;;;;19.90;44.63;99519.78;5440202;26;20566;-77
2024/04/12 11:47:40;;;;;;;8.27;5.13;;;;;;;19.86;44.72;99522.84;5438958;26;20296;-77
2024/04/12 11:50:10;;;;;;;7.70;5.07;;;;;;;19.92;45.98;99527.69;5438568;26;20317;-77
2024/04/12 11:52:39;;;;;;;8.17;5.23;;;;;;;20.09;44.99;99519.97;5438975;26;20250;-77
2024/04/12 11:55:08;;;;;;;8.87;5.70;;;;;;;20.09;45.49;99536.06;5440128;26;20224;-77
2024/04/12 11:57:37;;;;;;;7.13;4.83;;;;;;;19.92;45.26;99523.19;5441122;26;20224;-78
2024/04/12 12:00:08;;;;;;;10.37;5.90;;;;;;;20.00;46.73;99534.13;5439446;26;20236;-77
2024/04/12 12:02:35;;;;;;;9.53;5.77;;;;;;;20.11;46.17;99531.41;5439848;26;20526;-77
2024/04/12 12:05:04;;;;;;;7.57;5.73;;;;;;;20.02;45.71;99524.13;5441162;26;20229;-78
2024/04/12 12:07:30;;;;;;;7.37;5.30;;;;;;;20.03;45.72;99514.22;5448335;26;20232;-78
2024/04/12 12:10:03;;;;;;;10.13;6.03;;;;;;;20.18;45.91;99521.00;5447781;26;20270;-78
2024/04/12 12:12:30;;;;;;;8.53;5.87;;;;;;;20.20;46.69;99521.72;5445416;26;20228;-78
2024/04/12 12:14:59;;;;;;;10.27;6.10;;;;;;;20.37;45.37;99513.88;5444304;26;20296;-78
2024/04/12 12:17:24;;;;;;;7.60;5.60;;;;;;;20.36;44.47;99504.13;5444088;26;20268;-78
2024/04/12 12:19:57;;;;;;;9.33;5.27;;;;;;;20.33;44.57;99503.53;5444609;26;20240;-78
2024/04/12 12:22:22;;;;;;;8.87;5.33;;;;;;;20.39;43.87;99495.81;5444216;26;20259;-78
2024/04/12 12:24:51;;;;;;;10.33;6.13;;;;;;;20.44;44.07;99490.91;5445133;26;20710;-78
2024/04/12 12:27:19;;;;;;;7.00;5.43;;;;;;;20.42;46.50;99510.81;5444099;26;20259;-78
2024/04/12 12:29:49;;;;;;;7.23;5.33;;;;;;;20.38;46.37;99504.00;5444425;26;20647;-78
2024/04/12 12:32:14;;;;;;;9.43;5.87;;;;;;;20.56;46.87;99511.31;5444189;26;20375;-78
2024/04/12 12:34:43;;;;;;;12.47;7.20;;;;;;;20.48;44.51;99495.00;5441018;26;20262;-78
2024/04/12 12:37:09;;;;;;;9.63;6.20;;;;;;;20.45;44.25;99495.28;5440708;26;20699;-78
2024/04/12 12:39:38;;;;;;;8.57;6.00;;;;;;;20.57;43.62;99496.88;5442590;26;20469;-78
2024/04/12 12:42:04;;;;;;;12.43;6.30;;;;;;;20.58;43.16;99482.47;5442428;26;20703;-77
2024/04/12 12:44:35;;;;;;;9.50;5.90;;;;;;;20.64;43.35;99489.97;5442427;26;20316;-78
2024/04/12 12:47:02;;;;;;;10.80;5.63;;;;;;;20.67;43.35;99489.69;5442462;26;20296;-78
2024/04/12 12:49:40;;;;;;;8.30;5.97;;;;;;;20.73;43.53;99488.31;5442699;26;20240;-79
2024/04/12 12:52:06;;;;;;;9.37;5.23;;;;;;;20.70;43.49;99489.44;5442939;26;20224;-78
2024/04/12 12:54:36;;;;;;;6.97;5.17;;;;;;;20.80;43.90;99495.66;5442395;26;20265;-77
2024/04/12 12:57:06;;;;;;;8.93;4.97;;;;;;;20.81;42.78;99481.28;5442462;26;20744;-78
2024/04/12 12:59:40;;;;;;;7.80;4.47;;;;;;;20.77;44.31;99495.97;5441845;26;20244;-77
2024/04/12 13:02:06;;;;;;;8.00;4.77;;;;;;;20.89;42.96;99478.75;5442162;26;20221;-78